Pinehurst, Georgia
Current Conditions -  °F | °C
As of 4:35 PM on Friday 28 Nov 2014 (Local Time) from KCKF Reporting Station
Clear Clear  
Wind Chill: 51°   Ceiling: Unl
Heat Index: 51°   Visibility: 10mi
Dew Point: 24°   Wind: 3mph
Humidity: 35%   Direction: 340°NNW
Pressure: 30.33"   Gusts: NA
Location:  32.2°N, 83.76°W
Report Text: KCKF 282135Z AUTO 34003KT 10SM CLR 11/M04 A3033 RMK AO2 T01061044
Loading
Personal Weather Stations






























Interactive Weather Map New forecast layout! Learn more

10-Day Weather Forecast

Advertisements
Track Severe Weather on mobile